createdAt,value
2023-05-19T00:01:59.913Z,10.35
2023-05-19T00:04:38.302Z,10.30
2023-05-19T00:07:13.563Z,10.26
2023-05-19T00:09:46.765Z,10.22
2023-05-19T00:12:20.025Z,10.18
2023-05-19T00:14:52.688Z,10.18
2023-05-19T00:17:24.275Z,10.18
2023-05-19T00:19:55.576Z,10.17
2023-05-19T00:22:26.284Z,10.17
2023-05-19T00:24:56.984Z,10.20
2023-05-19T00:27:27.640Z,10.16
2023-05-19T00:29:58.469Z,10.08
2023-05-19T00:32:29.159Z,10.03
2023-05-19T00:34:59.942Z,9.99
2023-05-19T00:37:30.664Z,10.00
2023-05-19T00:40:01.351Z,10.00
2023-05-19T00:42:32.077Z,9.98
2023-05-19T00:45:02.781Z,9.93
2023-05-19T00:47:34.242Z,9.93
2023-05-19T00:50:03.440Z,9.95
2023-05-19T00:52:34.144Z,9.96
2023-05-19T00:55:05.555Z,9.95
2023-05-19T00:57:36.554Z,9.91
2023-05-19T01:00:09.785Z,9.90
2023-05-19T01:02:40.864Z,9.89
2023-05-19T01:05:12.700Z,9.86
2023-05-19T01:07:43.966Z,9.86
2023-05-19T01:10:14.747Z,9.86
2023-05-19T01:12:45.598Z,9.84
2023-05-19T01:15:16.583Z,9.78
2023-05-19T01:17:48.913Z,9.75
2023-05-19T01:20:24.273Z,9.75
2023-05-19T01:23:18.155Z,9.70
2023-05-19T01:26:15.960Z,9.69
2023-05-19T01:29:08.146Z,9.69
2023-05-19T01:32:09.446Z,9.72
2023-05-19T01:34:34.004Z,9.67
2023-05-19T01:37:05.568Z,9.66
2023-05-19T01:39:37.377Z,9.65
2023-05-19T01:42:11.002Z,9.61
2023-05-19T01:44:42.352Z,9.57
2023-05-19T01:47:13.700Z,9.54
2023-05-19T01:49:44.379Z,9.51
2023-05-19T01:52:15.038Z,9.52
2023-05-19T01:54:45.679Z,9.49
2023-05-19T01:57:24.627Z,9.49
2023-05-19T02:00:05.210Z,9.50
2023-05-19T02:02:44.211Z,9.50
2023-05-19T02:05:23.275Z,9.47
2023-05-19T02:07:59.767Z,9.41
2023-05-19T02:10:33.565Z,9.37
2023-05-19T02:13:07.125Z,9.34
2023-05-19T02:15:41.295Z,9.36
2023-05-19T02:18:14.230Z,9.41
2023-05-19T02:20:45.244Z,9.42
2023-05-19T02:23:14.336Z,9.47
2023-05-19T02:25:45.007Z,9.51
2023-05-19T02:28:15.743Z,9.54
2023-05-19T02:30:46.750Z,9.51
2023-05-19T02:33:15.939Z,9.51
2023-05-19T02:35:46.715Z,9.41
2023-05-19T02:38:17.461Z,9.36
2023-05-19T02:40:48.160Z,9.36
2023-05-19T02:43:18.920Z,9.38
2023-05-19T02:45:49.597Z,9.38
2023-05-19T02:48:20.260Z,9.35
2023-05-19T02:50:50.968Z,9.28
2023-05-19T02:53:21.729Z,9.21
2023-05-19T02:55:52.451Z,9.16
2023-05-19T02:58:23.190Z,9.12
2023-05-19T03:00:53.890Z,9.10
2023-05-19T03:03:24.695Z,9.08
2023-05-19T03:05:55.477Z,9.08
2023-05-19T03:08:26.192Z,9.13
2023-05-19T03:10:56.860Z,9.18
2023-05-19T03:13:27.797Z,9.20
2023-05-19T03:15:56.895Z,9.21
2023-05-19T03:18:27.842Z,9.27
2023-05-19T03:20:58.812Z,9.35
2023-05-19T03:23:27.960Z,9.44
2023-05-19T03:25:58.664Z,9.52
2023-05-19T03:28:29.348Z,9.59
2023-05-19T03:31:00.169Z,9.59
2023-05-19T03:33:31.103Z,9.47
2023-05-19T03:36:01.760Z,9.35
2023-05-19T03:38:32.502Z,9.33
2023-05-19T03:41:03.413Z,9.31
2023-05-19T03:43:34.266Z,9.28
2023-05-19T03:46:05.070Z,9.24
2023-05-19T03:48:36.378Z,9.28
2023-05-19T03:51:07.319Z,9.32
2023-05-19T03:53:37.984Z,9.39
2023-05-19T03:56:11.309Z,9.46
2023-05-19T03:58:42.128Z,9.49
2023-05-19T04:01:13.130Z,9.47
2023-05-19T04:03:42.261Z,9.55
2023-05-19T04:06:13.087Z,9.66
2023-05-19T04:08:43.812Z,9.88
2023-05-19T04:11:17.388Z,9.96
2023-05-19T04:13:48.151Z,9.96
2023-05-19T04:16:18.838Z,9.93
2023-05-19T04:18:49.669Z,9.99
2023-05-19T04:21:20.618Z,10.07
2023-05-19T04:23:49.755Z,10.15
2023-05-19T04:26:20.666Z,10.42
2023-05-19T04:28:51.315Z,10.78
2023-05-19T04:31:22.153Z,10.91
2023-05-19T04:33:52.869Z,10.97
2023-05-19T04:36:23.612Z,11.05
2023-05-19T04:38:54.714Z,11.14
2023-05-19T04:41:25.392Z,11.14
2023-05-19T04:43:56.074Z,11.13
2023-05-19T04:46:27.641Z,11.20
2023-05-19T04:48:58.306Z,11.37
2023-05-19T04:51:30.604Z,11.52
2023-05-19T04:54:01.464Z,11.70
2023-05-19T04:56:32.168Z,11.94
2023-05-19T04:59:02.891Z,12.21
2023-05-19T05:01:34.026Z,12.66
2023-05-19T05:04:05.007Z,13.27
2023-05-19T05:06:35.772Z,13.83
2023-05-19T05:09:06.560Z,14.44
2023-05-19T05:11:36.588Z,15.28
2023-05-19T05:14:09.984Z,15.90
2023-05-19T05:16:44.497Z,16.51
2023-05-19T05:19:17.916Z,16.88
2023-05-19T05:21:52.798Z,17.27
2023-05-19T05:24:27.668Z,17.60
2023-05-19T05:26:58.406Z,17.53
2023-05-19T05:29:29.757Z,17.27
2023-05-19T05:32:00.758Z,16.88
2023-05-19T05:34:31.577Z,16.53
2023-05-19T05:37:02.286Z,16.27
2023-05-19T05:39:32.976Z,16.14
2023-05-19T05:42:03.717Z,16.13
2023-05-19T05:44:32.927Z,16.19
2023-05-19T05:47:08.448Z,16.09
2023-05-19T05:49:40.467Z,16.03
2023-05-19T05:52:12.670Z,15.92
2023-05-19T05:54:46.264Z,15.92
2023-05-19T05:57:19.263Z,15.71
2023-05-19T05:59:50.027Z,15.49
2023-05-19T06:02:20.865Z,15.25
2023-05-19T06:04:50.038Z,15.03
2023-05-19T06:07:21.082Z,14.90
2023-05-19T06:09:51.787Z,15.01
2023-05-19T06:12:23.194Z,15.15
2023-05-19T06:14:53.997Z,15.20
2023-05-19T06:17:24.934Z,15.22
2023-05-19T06:19:55.845Z,15.31
2023-05-19T06:22:25.014Z,15.29
2023-05-19T06:24:58.404Z,15.24
2023-05-19T06:27:27.481Z,15.25
2023-05-19T06:29:58.350Z,15.19
2023-05-19T06:32:27.517Z,15.17
2023-05-19T06:35:00.807Z,15.27
2023-05-19T06:37:31.523Z,15.42
2023-05-19T06:40:02.272Z,15.52
2023-05-19T06:42:33.150Z,15.73
2023-05-19T06:45:04.094Z,15.98
2023-05-19T06:47:34.821Z,16.10
2023-05-19T06:50:07.844Z,16.02
2023-05-19T06:52:39.050Z,15.98
2023-05-19T06:55:16.865Z,15.99
2023-05-19T06:57:47.773Z,16.08
2023-05-19T07:00:18.848Z,16.03
2023-05-19T07:02:51.423Z,16.02
2023-05-19T07:05:20.696Z,15.90
2023-05-19T07:07:51.460Z,15.66
2023-05-19T07:10:22.295Z,15.50
2023-05-19T07:12:53.113Z,15.43
2023-05-19T07:15:22.255Z,15.36
2023-05-19T07:17:53.108Z,15.33
2023-05-19T07:20:22.193Z,15.33
2023-05-19T07:22:52.878Z,15.35
2023-05-19T07:25:23.586Z,15.37
2023-05-19T07:27:54.418Z,15.51
2023-05-19T07:30:23.834Z,15.63
2023-05-19T07:32:54.717Z,15.66
2023-05-19T07:35:27.309Z,15.66
2023-05-19T07:37:57.981Z,15.76
2023-05-19T07:40:28.787Z,15.97
2023-05-19T07:42:57.976Z,16.10
2023-05-19T07:45:28.745Z,16.20
2023-05-19T07:47:59.614Z,16.30
2023-05-19T07:50:30.532Z,16.33
2023-05-19T07:53:01.412Z,16.39
2023-05-19T07:55:30.523Z,16.50
2023-05-19T07:58:01.190Z,16.56
2023-05-19T08:00:32.199Z,16.57
2023-05-19T08:03:03.172Z,16.71
2023-05-19T08:05:32.368Z,16.93
2023-05-19T08:08:03.094Z,17.10
2023-05-19T08:10:33.969Z,17.30
2023-05-19T08:13:04.991Z,17.55
2023-05-19T08:15:34.849Z,17.59
2023-05-19T08:18:05.868Z,17.62
2023-05-19T08:20:36.605Z,17.63
2023-05-19T08:23:05.734Z,17.59
2023-05-19T08:25:36.494Z,17.53
2023-05-19T08:28:07.508Z,17.59
2023-05-19T08:30:38.249Z,17.60
2023-05-19T08:33:07.794Z,17.77
2023-05-19T08:35:38.598Z,17.96
2023-05-19T08:38:07.810Z,17.96
2023-05-19T08:40:41.480Z,17.93
2023-05-19T08:43:12.261Z,17.90
2023-05-19T08:45:43.083Z,17.91
2023-05-19T08:48:13.105Z,17.84
2023-05-19T08:50:52.127Z,17.84
2023-05-19T08:53:33.772Z,17.84
2023-05-19T08:56:10.730Z,17.95
2023-05-19T08:58:42.878Z,18.17
2023-05-19T09:01:15.172Z,18.24
2023-05-19T09:03:46.667Z,18.29
2023-05-19T09:06:17.522Z,18.33
2023-05-19T09:08:46.665Z,18.48
2023-05-19T09:11:17.670Z,18.56
2023-05-19T09:13:48.521Z,18.64
2023-05-19T09:16:17.860Z,18.77
2023-05-19T09:18:57.350Z,18.96
2023-05-19T09:21:32.563Z,19.12
2023-05-19T09:24:09.803Z,19.14
2023-05-19T09:26:42.123Z,19.18
2023-05-19T09:29:17.435Z,19.32
2023-05-19T09:31:51.812Z,19.25
2023-05-19T09:34:23.752Z,19.31
2023-05-19T09:36:54.875Z,19.41
2023-05-19T09:39:25.816Z,19.58
2023-05-19T09:41:57.833Z,19.69
2023-05-19T09:44:28.938Z,19.65
2023-05-19T09:47:00.256Z,19.60
2023-05-19T09:49:31.670Z,19.53
2023-05-19T09:52:04.353Z,19.34
2023-05-19T09:54:35.656Z,19.20
2023-05-19T09:57:08.413Z,19.00
2023-05-19T09:59:40.879Z,18.84
2023-05-19T10:02:16.712Z,18.82
2023-05-19T10:04:48.911Z,18.92
2023-05-19T10:07:23.246Z,18.95
2023-05-19T10:09:56.692Z,18.88
2023-05-19T10:12:30.469Z,18.88
2023-05-19T10:15:01.874Z,18.63
2023-05-19T10:17:34.412Z,18.50
2023-05-19T10:20:06.962Z,18.44
2023-05-19T10:22:38.138Z,18.35
2023-05-19T10:25:11.026Z,18.25
2023-05-19T10:27:44.956Z,18.14
2023-05-19T10:30:18.802Z,18.03
2023-05-19T10:32:50.012Z,17.93
2023-05-19T10:35:43.136Z,17.98
2023-05-19T10:38:21.706Z,17.91
2023-05-19T10:41:07.635Z,17.76
2023-05-19T10:43:48.228Z,17.69
2023-05-19T10:46:23.086Z,17.51
2023-05-19T10:48:54.130Z,17.41
2023-05-19T10:51:30.348Z,17.36
2023-05-19T10:54:03.270Z,17.30
2023-05-19T10:56:39.248Z,17.27
2023-05-19T10:59:29.885Z,17.01
2023-05-19T11:02:05.408Z,16.72
2023-05-19T11:04:51.324Z,16.65
2023-05-19T11:07:23.521Z,16.74
2023-05-19T11:09:54.449Z,16.76
2023-05-19T11:12:25.640Z,16.74
2023-05-19T11:14:58.020Z,16.78
2023-05-19T11:17:28.941Z,16.81
2023-05-19T11:19:59.851Z,16.92
2023-05-19T11:22:28.995Z,16.97
2023-05-19T11:24:59.865Z,16.87
2023-05-19T11:27:29.623Z,16.79
2023-05-19T11:30:01.744Z,16.72
2023-05-19T11:32:34.120Z,16.69
2023-05-19T11:35:05.691Z,16.66
2023-05-19T11:37:36.719Z,16.59
2023-05-19T11:40:08.040Z,16.59
2023-05-19T11:42:38.823Z,16.56
2023-05-19T11:45:09.498Z,16.58
2023-05-19T11:47:57.262Z,16.55
2023-05-19T11:50:32.519Z,16.54
2023-05-19T11:53:12.970Z,16.59
2023-05-19T11:55:48.769Z,16.66
2023-05-19T11:58:24.891Z,16.80
2023-05-19T12:00:55.864Z,16.88
2023-05-19T12:03:25.164Z,16.99
2023-05-19T12:05:56.162Z,17.08
2023-05-19T12:08:25.486Z,17.20
2023-05-19T12:10:56.582Z,17.26
2023-05-19T12:13:27.420Z,17.38
2023-05-19T12:15:59.183Z,17.33
2023-05-19T12:18:31.302Z,17.15
2023-05-19T12:21:02.139Z,17.01
2023-05-19T12:23:31.782Z,16.94
2023-05-19T12:26:03.562Z,17.02
2023-05-19T12:28:34.329Z,17.12
2023-05-19T12:31:03.636Z,17.19
2023-05-19T12:33:35.938Z,17.30
2023-05-19T12:36:07.924Z,17.26
2023-05-19T12:38:38.872Z,17.08
2023-05-19T12:41:10.799Z,16.99
2023-05-19T12:43:42.100Z,16.96
2023-05-19T12:46:13.652Z,17.00
2023-05-19T12:48:44.990Z,17.06
2023-05-19T12:51:19.033Z,17.16
2023-05-19T12:53:51.647Z,17.25
2023-05-19T12:56:25.421Z,17.38
2023-05-19T12:58:56.595Z,17.54
2023-05-19T13:01:29.392Z,17.64
2023-05-19T13:04:00.506Z,17.66
2023-05-19T13:06:31.726Z,17.57
2023-05-19T13:09:00.888Z,17.55
2023-05-19T13:11:31.985Z,17.55
2023-05-19T13:14:02.669Z,17.55
2023-05-19T13:16:33.429Z,17.51
2023-05-19T13:19:06.257Z,17.53
2023-05-19T13:21:37.248Z,17.57
2023-05-19T13:24:09.911Z,17.68
2023-05-19T13:26:41.658Z,17.78
2023-05-19T13:29:12.848Z,17.84
2023-05-19T13:31:44.031Z,17.82
2023-05-19T13:34:14.774Z,17.75
2023-05-19T13:36:45.524Z,17.72
2023-05-19T13:39:16.493Z,17.70
2023-05-19T13:41:45.624Z,17.80
2023-05-19T13:44:16.362Z,17.88
2023-05-19T13:46:47.424Z,17.92
2023-05-19T13:49:19.254Z,17.90
2023-05-19T13:51:48.437Z,17.93
2023-05-19T13:54:19.237Z,17.89
2023-05-19T13:56:48.502Z,17.77
2023-05-19T13:59:19.223Z,17.74
2023-05-19T14:01:50.060Z,17.88
2023-05-19T14:04:20.900Z,17.89
2023-05-19T14:06:52.049Z,17.90
2023-05-19T14:09:22.956Z,17.88
2023-05-19T14:11:53.708Z,17.90
2023-05-19T14:14:22.896Z,17.95
2023-05-19T14:16:53.652Z,17.86
2023-05-19T14:19:22.846Z,17.74
2023-05-19T14:21:53.936Z,17.72
2023-05-19T14:24:23.211Z,17.64
2023-05-19T14:26:53.908Z,17.52
2023-05-19T14:29:23.180Z,17.30
2023-05-19T14:31:53.964Z,16.99
2023-05-19T14:34:24.872Z,16.84
2023-05-19T14:36:55.726Z,16.67
2023-05-19T14:39:26.451Z,16.53
2023-05-19T14:41:55.643Z,16.41
2023-05-19T14:44:29.608Z,16.28
2023-05-19T14:47:00.687Z,16.18
2023-05-19T14:49:31.459Z,16.02
2023-05-19T14:52:02.192Z,15.87
2023-05-19T14:54:33.165Z,15.76
2023-05-19T14:57:04.081Z,15.72
2023-05-19T14:59:36.569Z,15.69
2023-05-19T15:02:07.527Z,15.62
2023-05-19T15:04:38.275Z,15.61
2023-05-19T15:07:10.639Z,15.64
2023-05-19T15:09:41.895Z,15.61
2023-05-19T15:12:11.089Z,15.58
2023-05-19T15:14:41.841Z,15.53
2023-05-19T15:17:12.662Z,15.59
2023-05-19T15:19:41.938Z,15.63
2023-05-19T15:22:12.717Z,15.65
2023-05-19T15:24:43.399Z,15.68
2023-05-19T15:27:14.454Z,15.66
2023-05-19T15:29:43.636Z,15.62
2023-05-19T15:32:14.475Z,15.56
2023-05-19T15:34:43.569Z,15.50
2023-05-19T15:37:14.285Z,15.37
2023-05-19T15:39:45.062Z,15.28
2023-05-19T15:42:15.767Z,15.24
2023-05-19T15:44:46.436Z,15.21
2023-05-19T15:47:17.298Z,15.15
2023-05-19T15:49:46.440Z,15.10
2023-05-19T15:52:17.492Z,15.09
2023-05-19T15:54:48.440Z,15.14
2023-05-19T15:57:19.195Z,15.11
2023-05-19T15:59:49.911Z,15.09
2023-05-19T16:02:21.288Z,15.12
2023-05-19T16:04:53.026Z,15.20
2023-05-19T16:07:23.767Z,15.27
2023-05-19T16:09:54.546Z,15.23
2023-05-19T16:12:25.292Z,15.22
2023-05-19T16:14:56.026Z,15.27
2023-05-19T16:17:26.738Z,15.22
2023-05-19T16:19:57.491Z,15.18
2023-05-19T16:22:28.272Z,15.15
2023-05-19T16:24:59.035Z,15.11
2023-05-19T16:27:29.795Z,15.09
2023-05-19T16:30:00.497Z,15.07
2023-05-19T16:32:31.277Z,15.10
2023-05-19T16:35:00.587Z,15.13
2023-05-19T16:37:31.373Z,15.11
2023-05-19T16:40:00.632Z,15.17
2023-05-19T16:42:31.530Z,15.22
2023-05-19T16:45:00.652Z,15.16
2023-05-19T16:47:31.835Z,15.12
2023-05-19T16:50:02.604Z,15.08
2023-05-19T16:52:33.959Z,15.07
2023-05-19T16:55:05.029Z,15.13
2023-05-19T16:57:35.789Z,15.25
2023-05-19T17:00:11.190Z,15.39
2023-05-19T17:02:41.946Z,15.50
2023-05-19T17:05:12.865Z,15.54
2023-05-19T17:07:43.653Z,15.56
2023-05-19T17:10:14.459Z,15.54
2023-05-19T17:12:43.655Z,15.42
2023-05-19T17:15:14.591Z,15.34
2023-05-19T17:17:55.312Z,15.32
2023-05-19T17:20:25.901Z,15.29
2023-05-19T17:22:56.782Z,15.17
2023-05-19T17:25:25.992Z,15.03
2023-05-19T17:27:56.651Z,14.93
2023-05-19T17:30:27.408Z,14.91
2023-05-19T17:32:58.430Z,14.90
2023-05-19T17:35:29.168Z,14.83
2023-05-19T17:37:59.908Z,14.76
2023-05-19T17:40:30.735Z,14.68
2023-05-19T17:43:01.452Z,14.60
2023-05-19T17:45:32.497Z,14.55
2023-05-19T17:48:03.245Z,14.48
2023-05-19T17:50:34.235Z,14.43
2023-05-19T17:53:06.259Z,14.37
2023-05-19T17:55:38.259Z,14.32
2023-05-19T17:58:11.140Z,14.27
2023-05-19T18:00:42.544Z,14.24
2023-05-19T18:03:14.595Z,14.20
2023-05-19T18:05:46.781Z,14.19
2023-05-19T18:08:20.052Z,14.19
2023-05-19T18:10:52.754Z,14.20
2023-05-19T18:13:23.524Z,14.20
2023-05-19T18:15:54.467Z,14.16
2023-05-19T18:18:45.766Z,14.17
2023-05-19T18:21:16.522Z,14.13
2023-05-19T18:23:47.510Z,14.04
2023-05-19T18:26:16.742Z,13.98
2023-05-19T18:28:47.480Z,13.91
2023-05-19T18:31:18.240Z,13.91
2023-05-19T18:33:49.260Z,13.88
2023-05-19T18:36:19.954Z,13.84
2023-05-19T18:38:52.824Z,13.87
2023-05-19T18:41:23.493Z,13.87
2023-05-19T18:43:54.445Z,13.82
2023-05-19T18:46:23.659Z,13.76
2023-05-19T18:48:54.499Z,13.72
2023-05-19T18:51:25.455Z,13.67
2023-05-19T18:53:56.177Z,13.65
2023-05-19T18:56:27.921Z,13.60
2023-05-19T18:59:01.148Z,13.58
2023-05-19T19:01:31.910Z,13.60
2023-05-19T19:04:03.089Z,13.60
2023-05-19T19:06:33.852Z,13.60
2023-05-19T19:09:05.000Z,13.58
2023-05-19T19:11:35.998Z,13.56
2023-05-19T19:14:05.185Z,13.52
2023-05-19T19:16:36.865Z,13.49
2023-05-19T19:19:07.669Z,13.50
2023-05-19T19:21:38.697Z,13.44
2023-05-19T19:24:09.675Z,13.39
2023-05-19T19:26:40.439Z,13.36
2023-05-19T19:29:11.192Z,13.30
2023-05-19T19:31:42.441Z,13.27
2023-05-19T19:34:13.218Z,13.27
2023-05-19T19:36:43.911Z,13.27
2023-05-19T19:39:14.834Z,13.25
2023-05-19T19:41:44.561Z,13.22
2023-05-19T19:44:15.393Z,13.21
2023-05-19T19:46:46.375Z,13.23
2023-05-19T19:49:15.665Z,13.20
2023-05-19T19:51:46.528Z,13.19
2023-05-19T19:54:17.940Z,13.16
2023-05-19T19:56:49.203Z,13.13
2023-05-19T19:59:18.637Z,13.15
2023-05-19T20:01:49.385Z,13.15
2023-05-19T20:04:28.201Z,13.15
2023-05-19T20:06:59.205Z,13.15
2023-05-19T20:09:30.029Z,13.15
2023-05-19T20:12:00.863Z,13.12
2023-05-19T20:14:30.193Z,13.10
2023-05-19T20:17:00.981Z,13.08
2023-05-19T20:19:31.805Z,13.06
2023-05-19T20:22:03.040Z,13.01
2023-05-19T20:24:32.270Z,12.99
2023-05-19T20:27:02.964Z,12.96
2023-05-19T20:29:33.853Z,12.95
2023-05-19T20:32:03.159Z,12.95
2023-05-19T20:34:33.971Z,12.99
2023-05-19T20:37:07.535Z,12.98
2023-05-19T20:39:44.411Z,12.94
2023-05-19T20:42:13.532Z,12.91
2023-05-19T20:44:44.333Z,12.87
2023-05-19T20:47:15.032Z,12.83
2023-05-19T20:49:45.991Z,12.81
2023-05-19T20:52:15.189Z,12.80
2023-05-19T20:54:46.223Z,12.80
2023-05-19T20:57:15.412Z,12.82
2023-05-19T20:59:46.192Z,12.79
2023-05-19T21:02:16.914Z,12.76
2023-05-19T21:04:49.372Z,12.77
2023-05-19T21:07:20.126Z,12.77
2023-05-19T21:09:50.982Z,12.76
2023-05-19T21:12:21.940Z,12.76
2023-05-19T21:14:53.937Z,12.79
2023-05-19T21:17:24.573Z,12.78
2023-05-19T21:19:55.568Z,12.81
2023-05-19T21:22:32.728Z,12.80
2023-05-19T21:25:24.432Z,12.83
2023-05-19T21:27:55.400Z,12.84
2023-05-19T21:30:27.667Z,12.83
2023-05-19T21:32:58.603Z,12.79
2023-05-19T21:35:29.499Z,12.77
2023-05-19T21:38:08.956Z,12.74
2023-05-19T21:40:48.035Z,12.75
2023-05-19T21:43:18.780Z,12.73
2023-05-19T21:46:10.598Z,12.68
2023-05-19T21:48:41.408Z,12.70
2023-05-19T21:51:12.110Z,12.70
2023-05-19T21:53:42.820Z,12.71
2023-05-19T21:56:13.514Z,12.68
2023-05-19T21:58:44.772Z,12.73
2023-05-19T22:01:15.470Z,12.73
2023-05-19T22:03:46.319Z,12.73
2023-05-19T22:06:17.465Z,12.71
2023-05-19T22:09:08.753Z,12.67
2023-05-19T22:11:39.461Z,12.65
2023-05-19T22:14:10.349Z,12.69
2023-05-19T22:16:39.859Z,12.74
2023-05-19T22:19:10.917Z,12.74
2023-05-19T22:21:40.110Z,12.73
2023-05-19T22:24:10.781Z,12.72
2023-05-19T22:26:41.518Z,12.72
2023-05-19T22:29:12.356Z,12.70
2023-05-19T22:31:43.438Z,12.68
2023-05-19T22:34:14.237Z,12.65
2023-05-19T22:36:45.049Z,12.61
2023-05-19T22:39:15.750Z,12.60
2023-05-19T22:41:46.565Z,12.62
2023-05-19T22:44:17.238Z,12.63
2023-05-19T22:46:48.043Z,12.62
2023-05-19T22:49:18.740Z,12.60
2023-05-19T22:51:49.620Z,12.58
2023-05-19T22:54:20.511Z,12.52
2023-05-19T22:56:51.226Z,12.51
2023-05-19T22:59:21.894Z,12.56
2023-05-19T23:01:52.640Z,12.59
2023-05-19T23:04:23.410Z,12.61
2023-05-19T23:06:54.240Z,12.59
2023-05-19T23:09:24.913Z,12.58
2023-05-19T23:11:55.808Z,12.58
2023-05-19T23:14:25.048Z,12.59
2023-05-19T23:16:55.769Z,12.54
2023-05-19T23:19:26.618Z,12.50
2023-05-19T23:21:57.392Z,12.54
2023-05-19T23:24:28.106Z,12.53
2023-05-19T23:26:58.786Z,12.50
2023-05-19T23:29:29.561Z,12.48
2023-05-19T23:32:00.312Z,12.47
2023-05-19T23:34:31.135Z,12.45
2023-05-19T23:37:01.925Z,12.40
2023-05-19T23:39:32.756Z,12.38
2023-05-19T23:42:03.446Z,12.36
2023-05-19T23:44:34.131Z,12.35
2023-05-19T23:47:05.141Z,12.35
2023-05-19T23:49:35.902Z,12.37
2023-05-19T23:52:08.661Z,12.38
2023-05-19T23:54:39.374Z,12.37
2023-05-19T23:57:10.100Z,12.36
2023-05-19T23:59:40.822Z,12.37
